Stockbridge, Georgia
Current Conditions -  °F | °C
As of 2:37 AM on Sunday 23 Nov 2014 (Local Time) from KATL Reporting Station
Light Rain Light Rain  
Wind Chill: 43°   Ceiling: 1400
Heat Index: 48°   Visibility: 8mi
Dew Point: 41°   Wind: 14mph
Humidity: 76%   Direction: 100°E
Pressure: 30.14"   Gusts: NA
Location:  33.54°N, 84.23°W
Report Text: KATL 230737Z 10012KT 8SM -RA OVC014 09/05 A3014 RMK AO2 P0004 $
Loading
Personal Weather Stations






























Interactive Weather Map New forecast layout! Learn more

10-Day Weather Forecast

Advertisements
Track Severe Weather on mobile